»·PEaware :: N9350K KRHV-L52

N9350K :: KRHV-L52

FLIGHT INFORMATION

Flight Status: Arrived
Operator: Privately registered:
United States
More flights under this callsign
Pilot: Slade E. (12022)
Aircraft: PIPER PA-28R-201 ARROW
(P28R)
More flights by this aircraft type
Origin: KRHV Reid-Hillview
United States
Destination: L52 Oceano Co
United States
More flights between these airports :: More routes between these airports
Route: SNS V25 PRB L52
File this flight plan on PilotEdge
Remarks:
Altitude:
(Current/Filed)
6,500ft
Speed:
(Current/Filed)
140kts
Departed: 30-Sep-17 04:23 PM
Arrived: 30-Sep-17 05:25 PM
Distance/Time
Traveled:
146nm/1:02
Distance/Time
To Go:
Arrived

Flight Plot

Page will automatically refresh every two minutes.

Flight plan parsing failed; only flown route is shown


Map Options




Map Legend


Flown Route
Filed Route
Departure Airport
Arrival Airport
Navaid (VOR, NDB)
Fix

Horizontal Profiles

Position Reports

Time Latitude Longitude Heading Altitude Ground
Speed
30-Sep-17 16:15 37.335946 -121.818422 0 135ft 0kts
30-Sep-17 16:16 37.335946 -121.818422 0 135ft 0kts
30-Sep-17 16:17 37.335946 -121.818422 0 135ft 0kts
30-Sep-17 16:18 37.335946 -121.818422 0 135ft 0kts
30-Sep-17 16:19 37.335946 -121.818422 0 135ft 0kts
30-Sep-17 16:20 37.335946 -121.818422 0 135ft 0kts
30-Sep-17 16:21 37.335946 -121.818422 0 135ft 0kts
30-Sep-17 16:22 37.336059 -121.818549 263 135ft 4kts
30-Sep-17 16:23 37.334189 -121.818274 142 135ft 9kts
30-Sep-17 16:24 37.332033 -121.816234 142 135ft 11kts
30-Sep-17 16:25 37.329791 -121.815683 234 135ft 0kts
30-Sep-17 16:26 37.329695 -121.815926 260 135ft 8kts
30-Sep-17 16:27 37.344017 -121.827817 350 1065ft 92kts
30-Sep-17 16:28 37.350230 -121.799455 133 2570ft 130kts
30-Sep-17 16:29 37.320166 -121.769177 146 3451ft 142kts
30-Sep-17 16:30 37.288089 -121.739696 144 4284ft 145kts
30-Sep-17 16:31 37.256254 -121.708696 138 5054ft 147kts
30-Sep-17 16:32 37.225724 -121.674501 138 5775ft 148kts
30-Sep-17 16:33 37.195409 -121.639562 138 6428ft 149kts
30-Sep-17 16:34 37.163757 -121.606133 169 6953ft 151kts
30-Sep-17 16:35 37.122546 -121.605035 182 7408ft 162kts
30-Sep-17 16:36 37.076038 -121.601727 183 7562ft 171kts
30-Sep-17 16:37 37.028125 -121.603716 189 7528ft 172kts
30-Sep-17 16:38 36.980856 -121.604729 180 7508ft 170kts
30-Sep-17 16:39 36.933625 -121.602206 184 7445ft 171kts
30-Sep-17 16:40 36.887318 -121.606081 193 7402ft 169kts
30-Sep-17 16:41 36.839748 -121.606700 185 7414ft 171kts
30-Sep-17 16:42 36.792146 -121.605957 185 7474ft 172kts
30-Sep-17 16:43 36.744255 -121.605397 186 7554ft 173kts
30-Sep-17 16:44 36.696005 -121.606366 187 7611ft 175kts
30-Sep-17 16:45 36.647742 -121.599406 148 7613ft 186kts
30-Sep-17 16:46 36.609501 -121.555169 137 7548ft 192kts
30-Sep-17 16:47 36.571414 -121.509228 138 7493ft 189kts
30-Sep-17 16:48 36.533544 -121.463833 137 7491ft 189kts
30-Sep-17 16:49 36.495470 -121.418900 140 7465ft 188kts
30-Sep-17 16:50 36.455299 -121.377720 142 7488ft 187kts
30-Sep-17 16:51 36.415324 -121.337170 137 7517ft 187kts
30-Sep-17 16:52 36.377587 -121.292336 138 7534ft 187kts
30-Sep-17 16:53 36.340034 -121.247600 138 7552ft 187kts
30-Sep-17 16:54 36.302285 -121.202646 138 7570ft 188kts
30-Sep-17 16:55 36.264617 -121.158016 138 7588ft 187kts
30-Sep-17 16:56 36.226990 -121.113940 138 7593ft 186kts
30-Sep-17 16:57 36.189173 -121.070097 138 7584ft 186kts
30-Sep-17 16:58 36.151482 -121.026803 138 7562ft 185kts
30-Sep-17 16:59 36.113684 -120.983785 138 7527ft 184kts
30-Sep-17 17:00 36.075985 -120.941142 138 7482ft 183kts
30-Sep-17 17:01 36.038482 -120.898752 138 7434ft 183kts
30-Sep-17 17:02 36.000808 -120.856165 137 7391ft 183kts
30-Sep-17 17:03 35.963339 -120.813804 137 7354ft 183kts
30-Sep-17 17:04 35.926009 -120.771597 137 7370ft 180kts
30-Sep-17 17:05 35.889475 -120.730422 138 7476ft 180kts
30-Sep-17 17:06 35.848280 -120.695973 162 7466ft 181kts
30-Sep-17 17:07 35.800186 -120.677057 163 7466ft 182kts
30-Sep-17 17:08 35.752282 -120.658357 163 7466ft 182kts
30-Sep-17 17:09 35.704168 -120.639605 163 7466ft 182kts
30-Sep-17 17:10 35.655635 -120.626378 198 7465ft 177kts
30-Sep-17 17:11 35.608731 -120.644002 200 7467ft 177kts
30-Sep-17 17:12 35.561794 -120.661917 200 7467ft 177kts
30-Sep-17 17:13 35.514760 -120.679852 200 7467ft 177kts
30-Sep-17 17:14 35.467412 -120.686698 174 7467ft 168kts
30-Sep-17 17:15 35.420170 -120.677807 174 6952ft 174kts
30-Sep-17 17:16 35.373183 -120.669518 175 6357ft 168kts
30-Sep-17 17:17 35.327694 -120.661573 175 5765ft 162kts
30-Sep-17 17:18 35.283495 -120.653864 176 5174ft 160kts
30-Sep-17 17:19 35.240345 -120.646369 176 4556ft 161kts
30-Sep-17 17:20 35.195808 -120.638633 176 3820ft 162kts
30-Sep-17 17:21 35.158866 -120.630677 164 3199ft 164kts
30-Sep-17 17:22 35.128511 -120.590036 118 2450ft 165kts
30-Sep-17 17:23 35.108122 -120.540009 126 1694ft 119kts
30-Sep-17 17:24 35.088874 -120.541702 232 1510ft 84kts
30-Sep-17 17:25 35.075906 -120.565959 270 1352ft 63kts
30-Sep-17 17:26 35.078772 -120.582106 304 1117ft 59kts
30-Sep-17 17:27 35.088090 -120.598295 303 620ft 58kts
30-Sep-17 17:28 35.096974 -120.614275 304 119ft 54kts
30-Sep-17 17:29 35.102672 -120.623994 31 16ft 11kts

Navigation Log

Ident Type
Flight plan parsing failed, navigation log unavailable